North Eaton, Ohio
Current Conditions -  °F | °C
As of 4:44 PM on Friday 24 Oct 2014 (Local Time) from KLPR Reporting Station
Haze Haze  
Wind Chill: 62°   Ceiling: Unl
Heat Index: 62°   Visibility: 0.75mi
Dew Point: 38°   Wind: 6mph
Humidity: 41%   Direction: 270°W
Pressure: 30"   Gusts: NA
Location:  41.2641°N, 82.0411°W
Report Text: KLPR 242044Z AUTO 27005KT 3/4SM HZ FEW045 17/03 A3000 RMK AO2 T01670033 TSNO
Loading
Personal Weather Stations






























Interactive Weather Map
Tropical Storm Tracking
New forecast layout! Learn more

10-Day Weather Forecast

Advertisements
Track Severe Weather on mobile